Latest Weather Observations for Cape Borda

IDS60801

Issued at 6:31 pm CST Friday 6 May 2016 (issued every 30 minutes, with the page automatically refreshed every 10 minutes)

About weather observations | Map of weather stations | Latest weather observations for SA | Other Formats
Station Details ID: 022823 Name: CAPE BORDA Lat: -35.75 Lon: 136.60 Height: 158.0 m
Data from the previous 72 hours. | See also: Recent months at Cape Borda
Date/Time
CST
Temp
°C
App
Temp
°C
Dew
Point
Rel
Hum
%
Delta-T
°C
Wind Press
QNH
hPa
Press
MSL
hPa
Rain
since 9 am
mm
Dir
 
Spd
km/h
Gust
km/h
Spd
kts
Gust
kts
06/06:30pm 12.9 - - - - CALM 0 0 0 0 1013.9 - 0.0
06/06:00pm 13.4 - - - - CALM 0 0 0 0 1013.7 1013.7 0.0
06/05:30pm 15.0 - - - - CALM 0 0 0 0 1013.5 - 0.0
06/05:00pm 16.4 - - - - W 4 7 2 4 1013.5 - 0.0
06/04:30pm 16.8 - - - - WSW 6 13 3 7 1013.6 - 0.0
06/04:00pm 17.0 - - - - W 9 13 5 7 1013.7 - 0.0
06/03:30pm 17.3 - - - - W 11 15 6 8 1013.7 - 0.0
06/03:00pm 17.2 - - - - WNW 13 17 7 9 1013.8 1013.8 0.0
06/02:30pm 17.6 - - - - WNW 11 17 6 9 1013.9 - 0.0
06/02:00pm 17.2 - - - - NW 13 17 7 9 1014.0 - 0.0
06/01:30pm 17.2 - - - - NW 13 17 7 9 1014.0 - 0.0
06/01:00pm 17.3 - - - - WNW 11 15 6 8 1014.3 - 0.0
06/12:30pm 17.0 - - - - W 11 17 6 9 1014.6 - 0.0
06/12:00pm 17.1 - - - - W 7 13 4 7 1014.9 1014.8 0.0
06/11:30am 17.2 - - - - W 7 13 4 7 1015.2 - 0.0
06/11:00am 16.5 - - - - W 11 15 6 8 1015.7 - 0.0
06/10:30am 16.6 - - - - WSW 11 15 6 8 1015.7 - 0.0
06/10:00am 16.2 - - - - WSW 13 17 7 9 1015.8 - 0.0
06/09:30am 15.9 - - - - WSW 13 17 7 9 1015.8 - 0.0
06/09:00am 15.0 - - - - WSW 13 19 7 10 1015.6 1015.5 0.2
06/08:30am 15.0 - - - - WSW 11 13 6 7 1015.2 - 0.2
06/08:00am 13.9 - - - - SSW 13 17 7 9 1014.6 - 0.2
06/07:30am 13.4 - - - - SW 13 19 7 10 1014.3 - 0.2
06/07:00am 14.4 - - - - SW 13 19 7 10 1013.9 - 0.2
06/06:30am 14.8 - - - - SW 13 20 7 11 1013.8 - 0.2
06/06:00am 14.9 - - - - WSW 17 24 9 13 1013.8 1013.8 0.2
06/05:30am 15.0 - - - - SW 17 22 9 12 1013.7 - 0.2
06/05:00am 14.9 - - - - SW 15 20 8 11 1013.3 - 0.2
06/04:30am 14.6 - - - - SW 13 19 7 10 1013.0 - 0.2
06/04:00am 14.9 - - - - SW 19 24 10 13 1012.8 - 0.2
06/03:30am 14.9 - - - - SSW 15 22 8 12 1012.9 - 0.2
06/03:00am 14.8 - - - - SW 17 24 9 13 1012.7 1012.7 0.2
06/02:30am 14.9 - - - - SSW 20 30 11 16 1012.5 - 0.2
06/02:00am 15.1 - - - - SW 17 20 9 11 1012.4 - 0.2
06/01:30am 14.8 - - - - SSW 13 17 7 9 1012.2 - 0.2
06/01:00am 15.3 - - - - SSW 15 20 8 11 1012.1 - 0.2
06/12:30am 16.1 - - - - SSW 17 22 9 12 1012.0 - 0.2
06/12:00am 15.9 - - - - WSW 15 22 8 12 1011.8 1011.8 0.2
 
Date/Time
CST
Temp
°C
App
Temp
°C
Dew
Point
Rel
Hum
%
Delta-T
°C
Wind Press
QNH
hPa
Press
MSL
hPa
Rain
since 9 am
mm
Dir
 
Spd
km/h
Gust
km/h
Spd
kts
Gust
kts
05/11:30pm 15.8 - - - - WSW 13 19 7 10 1011.9 - 0.2
05/11:00pm 16.0 - - - - WSW 15 20 8 11 1011.9 - 0.2
05/10:30pm 16.0 - - - - WSW 17 24 9 13 1011.7 - 0.2
05/10:00pm 16.4 - - - - WSW 17 28 9 15 1011.9 - 0.2
05/09:30pm 16.7 - - - - W 17 24 9 13 1011.6 - 0.2
05/09:00pm 17.0 - - - - W 17 22 9 12 1011.4 1011.4 0.2
05/08:30pm 17.0 - - - - WNW 15 20 8 11 1011.2 - 0.2
05/08:00pm 17.1 - - - - NW 17 22 9 12 1010.9 - 0.2
05/07:30pm 17.0 - - - - NW 17 22 9 12 1010.7 - 0.2
05/07:00pm 17.1 - - - - NW 17 24 9 13 1010.5 - 0.2
05/06:30pm 17.4 - - - - NW 19 28 10 15 1010.4 - 0.2
05/06:00pm 17.6 - - - - NW 19 24 10 13 1010.0 1009.9 0.2
05/05:30pm 18.1 - - - - NW 24 33 13 18 1009.8 - 0.2
05/05:00pm 19.0 - - - - NW 30 41 16 22 1009.6 - 0.2
05/04:30pm 19.7 - - - - NW 32 44 17 24 1009.5 - 0.2
05/04:00pm 20.0 - - - - NW 33 46 18 25 1009.4 - 0.2
05/03:30pm 19.7 - - - - NW 24 33 13 18 1009.7 - 0.2
05/03:00pm 19.4 - - - - NNW 22 30 12 16 1009.6 1009.5 0.2
05/02:30pm 20.0 - - - - NNW 24 32 13 17 1009.6 - 0.2
05/02:00pm 20.1 - - - - NNW 26 37 14 20 1009.7 - 0.2
05/01:30pm 19.9 - - - - NNW 22 32 12 17 1009.9 - 0.2
05/01:00pm 19.3 - - - - NNW 26 35 14 19 1010.1 - 0.2
05/12:30pm 19.1 - - - - NNW 28 39 15 21 1010.5 - 0.2
05/12:00pm 18.9 - - - - NNW 24 33 13 18 1010.9 1010.9 0.0
05/11:30am 18.9 - - - - NNW 22 32 12 17 1011.4 - 0.0
05/11:00am 18.2 - - - - NNW 28 37 15 20 1011.8 - 0.0
05/10:30am 18.1 - - - - NNW 28 41 15 22 1011.9 - 0.0
05/10:00am 17.7 - - - - NNW 28 39 15 21 1012.3 - 0.0
05/09:30am 17.3 - - - - NNW 26 37 14 20 1012.5 - 0.0
05/09:00am 16.8 - - - - NNW 28 41 15 22 1012.6 1012.6 1.8
05/08:30am 16.4 - - - - NNW 28 41 15 22 1012.5 - 1.8
05/08:00am 16.0 - - - - NNW 26 35 14 19 1012.4 - 1.8
05/07:30am 15.5 - - - - NNW 24 32 13 17 1012.3 - 1.8
05/07:00am 15.5 - - - - NNW 22 35 12 19 1012.2 - 1.8
05/06:30am 15.4 - - - - NNW 26 39 14 21 1011.9 - 1.8
05/06:00am 15.5 - - - - NNW 24 39 13 21 1011.9 1011.9 1.8
05/05:30am 15.5 - - - - NNW 26 39 14 21 1012.0 - 1.8
05/05:00am 15.7 - - - - NNW 26 43 14 23 1011.7 - 1.8
05/04:30am 15.7 - - - - NW 30 46 16 25 1011.5 - 1.8
05/04:00am 15.6 - - - - NW 24 33 13 18 1011.7 - 1.8
05/03:30am 15.7 - - - - NNW 30 43 16 23 1011.8 - 1.8
05/03:00am 15.8 - - - - NNW 30 39 16 21 1012.0 1012.0 1.8
05/02:30am 15.6 - - - - NNW 26 39 14 21 1012.2 - 1.8
05/02:00am 15.4 - - - - NNW 28 41 15 22 1012.5 - 1.8
05/01:30am 15.4 - - - - NNW 30 39 16 21 1012.6 - 1.8
05/01:00am 15.2 - - - - NNW 28 39 15 21 1012.7 - 1.8
05/12:30am 15.0 - - - - NNW 24 35 13 19 1012.9 - 1.8
05/12:00am 15.6 - - - - NNW 26 39 14 21 1013.0 1013.0 1.8
 
Date/Time
CST
Temp
°C
App
Temp
°C
Dew
Point
Rel
Hum
%
Delta-T
°C
Wind Press
QNH
hPa
Press
MSL
hPa
Rain
since 9 am
mm
Dir
 
Spd
km/h
Gust
km/h
Spd
kts
Gust
kts
04/11:30pm 15.8 - - - - NW 24 32 13 17 1013.3 - 1.8
04/11:00pm 15.5 - - - - NW 24 32 13 17 1013.4 - 1.8
04/10:36pm 15.9 - - - - NW 30 48 16 26 1013.5 - 1.8
04/10:30pm 15.8 - - - - NW 28 37 15 20 1013.6 - 1.8
04/10:00pm 15.5 - - - - NW 24 32 13 17 1013.8 - 1.8
04/09:30pm 15.4 - - - - NW 26 35 14 19 1013.9 - 1.8
04/09:00pm 15.1 - - - - NW 24 33 13 18 1013.9 1013.9 1.8
04/08:30pm 15.2 - - - - NW 26 35 14 19 1013.8 - 1.8
04/08:00pm 15.0 - - - - NW 30 41 16 22 1014.0 - 1.6
04/07:30pm 15.1 - - - - NW 32 41 17 22 1013.9 - 1.6
04/07:00pm 14.9 - - - - NW 28 39 15 21 1013.8 - 1.4
04/06:30pm 14.7 - - - - NW 32 46 17 25 1013.6 - 0.2
04/06:17pm 14.8 - - - - NW 32 50 17 27 1013.5 - 0.2
04/06:00pm 15.1 - - - - NW 33 44 18 24 1013.3 1013.3 0.2
04/05:30pm 15.1 - - - - NW 30 43 16 23 1013.3 - 0.2
04/05:00pm 15.1 - - - - NW 30 44 16 24 1013.3 - 0.2
04/04:30pm 15.5 - - - - NW 30 44 16 24 1013.1 - 0.2
04/04:00pm 16.2 - - - - NW 30 41 16 22 1013.2 - 0.2
04/03:30pm 16.5 - - - - NW 30 44 16 24 1013.1 - 0.2
04/03:00pm 16.0 - - - - NW 30 41 16 22 1013.3 1013.3 0.2
04/02:30pm 15.7 - - - - NW 30 41 16 22 1013.3 - 0.2
04/02:00pm 15.8 - - - - NW 30 39 16 21 1013.7 - 0.2
04/01:30pm 17.1 - - - - NW 28 37 15 20 1013.8 - 0.2
04/01:00pm 16.6 - - - - NW 26 37 14 20 1014.0 - 0.0
04/12:30pm 15.7 - - - - WNW 17 32 9 17 1014.5 - 0.0
04/12:00pm 14.2 - - - - WNW 20 39 11 21 1015.1 1015.0 0.0
04/11:30am 15.8 - - - - WNW 20 30 11 16 1015.3 - 0.0
04/11:00am 16.2 - - - - WNW 22 32 12 17 1015.5 - 0.0
04/10:30am 15.1 - - - - WNW 24 35 13 19 1015.7 - 0.0
04/10:00am 16.1 - - - - WNW 26 37 14 20 1015.6 - 0.0
04/09:30am 15.0 - - - - WNW 26 33 14 18 1015.6 - 0.0
04/09:00am 14.8 - - - - WNW 22 35 12 19 1015.3 1015.2 1.4
04/08:30am 14.5 - - - - WNW 19 26 10 14 1015.2 - 1.4
04/08:00am 13.3 - - - - WNW 20 32 11 17 1015.0 - 1.4
04/07:30am 13.4 - - - - W 17 26 9 14 1014.7 - 1.4
04/07:00am 13.7 - - - - W 19 24 10 13 1014.4 - 1.4
04/06:30am 13.8 - - - - W 22 35 12 19 1014.0 - 1.4
04/06:00am 13.8 - - - - WSW 19 30 10 16 1013.8 1013.8 1.4
04/05:30am 13.7 - - - - WSW 20 28 11 15 1013.5 - 1.4
04/05:00am 13.6 - - - - WSW 19 26 10 14 1013.4 - 1.4
04/04:30am 13.3 - - - - WSW 19 28 10 15 1013.3 - 1.4
04/04:00am 13.3 - - - - WSW 24 32 13 17 1013.1 - 1.4
04/03:30am 12.9 - - - - WSW 20 32 11 17 1013.0 - 1.4
04/03:00am 12.7 - - - - WSW 26 39 14 21 1013.1 1013.1 1.4
04/02:30am 12.4 - - - - SW 24 33 13 18 1013.2 - 1.4
04/02:00am 12.5 - - - - SW 20 35 11 19 1013.1 - 1.4
04/01:30am 11.6 - - - - SW 26 39 14 21 1013.0 - 1.4
04/01:00am 12.7 - - - - WSW 26 35 14 19 1012.9 - 1.4
04/12:30am 11.4 - - - - SSW 19 24 10 13 1012.9 - 1.4
04/12:00am 11.5 - - - - WSW 30 48 16 26 1013.0 1013.0 1.4
 
Date/Time
CST
Temp
°C
App
Temp
°C
Dew
Point
Rel
Hum
%
Delta-T
°C
Wind Press
QNH
hPa
Press
MSL
hPa
Rain
since 9 am
mm
Dir
 
Spd
km/h
Gust
km/h
Spd
kts
Gust
kts
03/11:46pm 12.4 - - - - WSW 28 52 15 28 1012.9 - 1.2
03/11:30pm 12.6 - - - - WSW 22 32 12 17 1012.8 - 1.2
03/11:01pm 11.7 - - - - SW 32 50 17 27 1012.8 - 1.2
03/11:00pm 11.8 - - - - WSW 30 43 16 23 1012.8 - 1.2
03/10:30pm 12.6 - - - - WSW 22 37 12 20 1012.7 - 1.2
03/10:00pm 11.9 - - - - SW 24 35 13 19 1012.7 - 1.2
03/09:30pm 12.9 - - - - SW 22 41 12 22 1012.6 - 1.0
03/09:00pm 13.8 - - - - WSW 26 39 14 21 1012.2 1012.2 0.8
03/08:30pm 13.0 - - - - WSW 22 32 12 17 1012.1 - 0.8
03/08:00pm 13.2 - - - - WSW 24 35 13 19 1011.8 - 0.8
03/07:30pm 13.9 - - - - WSW 28 37 15 20 1011.2 - 0.8
03/07:00pm 13.4 - - - - SW 26 37 14 20 1010.8 - 0.8

Other Formats:

Comma delimited format used in spreadsheet applications
http://www.bom.gov.au/fwo/IDS60801/IDS60801.95805.axf

JavaScript Object Notation format (JSON) in row-major order
http://www.bom.gov.au/fwo/IDS60801/IDS60801.95805.json